sensor_id;sensor_type;location;lat;lon;timestamp;pressure;altitude;pressure_sealevel;temperature;humidity
11314;BME280;5712;48.858;9.206;2023-05-11T00:00:32;97964.03;;;11.91;100.00
11314;BME280;5712;48.858;9.206;2023-05-11T00:02:58;97981.13;;;11.87;100.00
11314;BME280;5712;48.858;9.206;2023-05-11T00:05:25;97978.59;;;11.85;100.00
11314;BME280;5712;48.858;9.206;2023-05-11T00:07:51;97971.84;;;11.81;100.00
11314;BME280;5712;48.858;9.206;2023-05-11T00:10:18;97969.81;;;11.85;100.00
11314;BME280;5712;48.858;9.206;2023-05-11T00:12:46;97958.50;;;11.83;100.00
11314;BME280;5712;48.858;9.206;2023-05-11T00:15:13;97970.75;;;11.84;100.00
11314;BME280;5712;48.858;9.206;2023-05-11T00:17:39;97968.97;;;11.84;100.00
11314;BME280;5712;48.858;9.206;2023-05-11T00:20:07;97960.44;;;11.81;100.00
11314;BME280;5712;48.858;9.206;2023-05-11T00:22:34;97960.03;;;11.74;100.00
11314;BME280;5712;48.858;9.206;2023-05-11T00:25:00;97961.13;;;11.72;100.00
11314;BME280;5712;48.858;9.206;2023-05-11T00:27:26;97959.69;;;11.68;100.00
11314;BME280;5712;48.858;9.206;2023-05-11T00:29:54;97962.19;;;11.69;100.00
11314;BME280;5712;48.858;9.206;2023-05-11T00:32:21;97963.03;;;11.70;100.00
11314;BME280;5712;48.858;9.206;2023-05-11T00:34:47;97955.97;;;11.70;100.00
11314;BME280;5712;48.858;9.206;2023-05-11T00:37:14;97958.34;;;11.73;100.00
11314;BME280;5712;48.858;9.206;2023-05-11T00:39:40;97959.31;;;11.72;100.00
11314;BME280;5712;48.858;9.206;2023-05-11T00:42:07;97957.53;;;11.73;100.00
11314;BME280;5712;48.858;9.206;2023-05-11T00:44:33;97957.53;;;11.73;100.00
11314;BME280;5712;48.858;9.206;2023-05-11T00:47:01;97957.75;;;11.70;100.00
11314;BME280;5712;48.858;9.206;2023-05-11T00:49:28;97954.38;;;11.68;100.00
11314;BME280;5712;48.858;9.206;2023-05-11T00:51:55;97955.97;;;11.70;100.00
11314;BME280;5712;48.858;9.206;2023-05-11T00:54:22;97956.06;;;11.69;100.00
11314;BME280;5712;48.858;9.206;2023-05-11T00:56:48;97955.09;;;11.70;100.00
11314;BME280;5712;48.858;9.206;2023-05-11T00:59:15;97953.06;;;11.73;100.00
11314;BME280;5712;48.858;9.206;2023-05-11T01:01:42;97954.75;;;11.74;100.00
11314;BME280;5712;48.858;9.206;2023-05-11T01:04:10;97956.81;;;11.82;100.00
11314;BME280;5712;48.858;9.206;2023-05-11T01:06:47;97957.66;;;11.82;100.00
11314;BME280;5712;48.858;9.206;2023-05-11T01:09:26;97961.03;;;11.84;100.00
11314;BME280;5712;48.858;9.206;2023-05-11T01:12:05;97954.88;;;11.84;100.00
11314;BME280;5712;48.858;9.206;2023-05-11T01:14:34;97962.09;;;11.82;100.00
11314;BME280;5712;48.858;9.206;2023-05-11T01:17:07;97963.44;;;11.76;100.00
11314;BME280;5712;48.858;9.206;2023-05-11T01:19:43;97958.34;;;11.73;100.00
11314;BME280;5712;48.858;9.206;2023-05-11T01:22:22;97957.75;;;11.70;100.00
11314;BME280;5712;48.858;9.206;2023-05-11T01:25:04;97958.59;;;11.70;100.00
11314;BME280;5712;48.858;9.206;2023-05-11T01:27:47;97956.56;;;11.74;100.00
11314;BME280;5712;48.858;9.206;2023-05-11T01:30:33;97950.41;;;11.73;100.00
11314;BME280;5712;48.858;9.206;2023-05-11T01:33:05;97948.84;;;11.71;100.00
11314;BME280;5712;48.858;9.206;2023-05-11T01:35:34;97946.19;;;11.71;100.00
11314;BME280;5712;48.858;9.206;2023-05-11T01:38:05;97948.38;;;11.77;100.00
11314;BME280;5712;48.858;9.206;2023-05-11T01:40:36;97945.50;;;11.80;100.00
11314;BME280;5712;48.858;9.206;2023-05-11T01:43:05;97942.84;;;11.80;100.00
11314;BME280;5712;48.858;9.206;2023-05-11T01:45:36;97940.22;;;11.80;100.00
11314;BME280;5712;48.858;9.206;2023-05-11T01:48:05;97941.41;;;11.76;100.00
11314;BME280;5712;48.858;9.206;2023-05-11T01:50:33;97946.47;;;11.79;100.00
11314;BME280;5712;48.858;9.206;2023-05-11T01:53:01;97946.47;;;11.79;100.00
11314;BME280;5712;48.858;9.206;2023-05-11T01:55:30;97944.75;;;11.78;100.00
11314;BME280;5712;48.858;9.206;2023-05-11T01:57:59;97951.50;;;11.82;100.00
11314;BME280;5712;48.858;9.206;2023-05-11T02:00:27;97941.31;;;11.88;100.00
11314;BME280;5712;48.858;9.206;2023-05-11T02:02:55;97945.75;;;11.88;100.00
11314;BME280;5712;48.858;9.206;2023-05-11T02:05:24;97943.47;;;11.83;100.00
11314;BME280;5712;48.858;9.206;2023-05-11T02:07:52;97947.69;;;11.86;100.00
11314;BME280;5712;48.858;9.206;2023-05-11T02:10:21;97945.75;;;11.88;100.00
11314;BME280;5712;48.858;9.206;2023-05-11T02:12:51;97945.75;;;11.88;100.00
11314;BME280;5712;48.858;9.206;2023-05-11T02:15:19;97944.06;;;11.87;100.00
11314;BME280;5712;48.858;9.206;2023-05-11T02:17:46;97942.25;;;11.87;100.00
11314;BME280;5712;48.858;9.206;2023-05-11T02:20:16;97956.09;;;11.91;100.00
11314;BME280;5712;48.858;9.206;2023-05-11T02:22:43;97954.28;;;11.91;100.00
11314;BME280;5712;48.858;9.206;2023-05-11T02:25:11;97954.41;;;11.90;100.00
11314;BME280;5712;48.858;9.206;2023-05-11T02:27:38;97949.97;;;11.90;100.00
11314;BME280;5712;48.858;9.206;2023-05-11T02:30:06;97946.97;;;11.95;100.00
11314;BME280;5712;48.858;9.206;2023-05-11T02:32:35;97948.88;;;11.93;100.00
11314;BME280;5712;48.858;9.206;2023-05-11T02:35:05;97945.88;;;11.97;100.00
11314;BME280;5712;48.858;9.206;2023-05-11T02:37:40;97951.28;;;11.96;100.00
11314;BME280;5712;48.858;9.206;2023-05-11T02:40:12;97950.56;;;11.94;100.00
11314;BME280;5712;48.858;9.206;2023-05-11T02:42:41;97945.50;;;11.91;100.00
11314;BME280;5712;48.858;9.206;2023-05-11T02:45:10;97952.50;;;11.92;100.00
11314;BME280;5712;48.858;9.206;2023-05-11T02:47:38;97947.44;;;11.89;100.00
11314;BME280;5712;48.858;9.206;2023-05-11T02:50:08;97949.38;;;11.87;100.00
11314;BME280;5712;48.858;9.206;2023-05-11T02:52:37;97952.97;;;11.86;100.00
11314;BME280;5712;48.858;9.206;2023-05-11T02:55:07;97945.75;;;11.88;100.00
11314;BME280;5712;48.858;9.206;2023-05-11T02:57:35;97954.41;;;11.90;100.00
11314;BME280;5712;48.858;9.206;2023-05-11T03:00:02;97944.91;;;11.87;100.00
11314;BME280;5712;48.858;9.206;2023-05-11T03:04:56;97938.78;;;11.87;100.00
11314;BME280;5712;48.858;9.206;2023-05-11T03:07:22;97936.84;;;11.89;100.00
11314;BME280;5712;48.858;9.206;2023-05-11T03:09:51;97942.13;;;11.89;100.00
11314;BME280;5712;48.858;9.206;2023-05-11T03:12:18;97931.19;;;11.82;100.00
11314;BME280;5712;48.858;9.206;2023-05-11T03:14:46;97932.25;;;11.80;100.00
11314;BME280;5712;48.858;9.206;2023-05-11T03:17:14;97937.41;;;11.81;100.00
11314;BME280;5712;48.858;9.206;2023-05-11T03:19:41;97937.31;;;11.83;100.00
11314;BME280;5712;48.858;9.206;2023-05-11T03:22:08;97935.38;;;11.85;100.00
11314;BME280;5712;48.858;9.206;2023-05-11T03:24:36;97937.19;;;11.84;100.00
11314;BME280;5712;48.858;9.206;2023-05-11T03:27:06;97934.66;;;11.83;100.00
11314;BME280;5712;48.858;9.206;2023-05-11T03:29:35;97938.28;;;11.82;100.00
11314;BME280;5712;48.858;9.206;2023-05-11T03:32:04;97928.66;;;11.81;100.00
11314;BME280;5712;48.858;9.206;2023-05-11T03:34:31;97930.22;;;11.83;100.00
11314;BME280;5712;48.858;9.206;2023-05-11T03:36:59;97927.22;;;11.88;100.00
11314;BME280;5712;48.858;9.206;2023-05-11T03:39:26;97930.56;;;11.90;100.00
11314;BME280;5712;48.858;9.206;2023-05-11T03:41:54;97925.28;;;11.90;100.00
11314;BME280;5712;48.858;9.206;2023-05-11T03:44:23;97931.19;;;11.93;100.00
11314;BME280;5712;48.858;9.206;2023-05-11T03:46:52;97932.16;;;11.92;100.00
11314;BME280;5712;48.858;9.206;2023-05-11T03:49:20;97926.72;;;11.94;100.00
11314;BME280;5712;48.858;9.206;2023-05-11T03:51:47;97932.16;;;11.92;100.00
11314;BME280;5712;48.858;9.206;2023-05-11T03:54:14;97923.47;;;11.90;100.00
11314;BME280;5712;48.858;9.206;2023-05-11T03:56:40;97923.38;;;11.92;100.00
11314;BME280;5712;48.858;9.206;2023-05-11T03:59:07;97922.63;;;11.90;100.00
11314;BME280;5712;48.858;9.206;2023-05-11T04:01:35;97924.44;;;11.89;100.00
11314;BME280;5712;48.858;9.206;2023-05-11T04:04:02;97924.56;;;11.88;100.00
11314;BME280;5712;48.858;9.206;2023-05-11T04:06:28;97920.94;;;11.89;100.00
11314;BME280;5712;48.858;9.206;2023-05-11T04:08:55;97922.41;;;11.93;100.00
11314;BME280;5712;48.858;9.206;2023-05-11T04:11:22;97918.69;;;11.95;100.00
11314;BME280;5712;48.858;9.206;2023-05-11T04:13:48;97920.72;;;11.92;100.00
11314;BME280;5712;48.858;9.206;2023-05-11T04:16:15;97916.38;;;11.91;100.00
11314;BME280;5712;48.858;9.206;2023-05-11T04:18:43;97917.34;;;11.90;100.00
11314;BME280;5712;48.858;9.206;2023-05-11T04:21:09;97917.13;;;11.93;100.00
11314;BME280;5712;48.858;9.206;2023-05-11T04:23:35;97911.31;;;11.88;100.00
11314;BME280;5712;48.858;9.206;2023-05-11T04:26:02;97919.28;;;11.88;100.00
11314;BME280;5712;48.858;9.206;2023-05-11T04:28:29;97925.53;;;11.87;100.00
11314;BME280;5712;48.858;9.206;2023-05-11T04:30:56;97919.00;;;11.91;100.00
11314;BME280;5712;48.858;9.206;2023-05-11T04:33:23;97925.28;;;11.90;100.00
11314;BME280;5712;48.858;9.206;2023-05-11T04:35:52;97918.56;;;11.86;100.00
11314;BME280;5712;48.858;9.206;2023-05-11T04:38:22;97920.72;;;11.92;100.00
11314;BME280;5712;48.858;9.206;2023-05-11T04:40:49;97920.94;;;11.89;100.00
11314;BME280;5712;48.858;9.206;2023-05-11T04:43:16;97921.66;;;11.91;100.00
11314;BME280;5712;48.858;9.206;2023-05-11T04:45:46;97927.94;;;11.90;100.00
11314;BME280;5712;48.858;9.206;2023-05-11T04:48:12;97921.66;;;11.91;100.00
11314;BME280;5712;48.858;9.206;2023-05-11T04:50:39;97926.03;;;11.92;100.00
11314;BME280;5712;48.858;9.206;2023-05-11T04:53:07;97927.69;;;11.93;100.00
11314;BME280;5712;48.858;9.206;2023-05-11T04:55:33;97921.91;;;11.88;100.00
11314;BME280;5712;48.858;9.206;2023-05-11T04:58:00;97928.19;;;11.87;100.00
11314;BME280;5712;48.858;9.206;2023-05-11T05:00:26;97921.81;;;11.89;100.00
11314;BME280;5712;48.858;9.206;2023-05-11T05:02:53;97934.44;;;11.97;100.00
11314;BME280;5712;48.858;9.206;2023-05-11T05:05:19;97936.13;;;11.98;100.00
11314;BME280;5712;48.858;9.206;2023-05-11T05:07:46;97931.06;;;11.95;100.00
11314;BME280;5712;48.858;9.206;2023-05-11T05:10:13;97927.44;;;11.96;100.00
11314;BME280;5712;48.858;9.206;2023-05-11T05:12:40;97928.06;;;11.99;100.00
11314;BME280;5712;48.858;9.206;2023-05-11T05:15:08;97934.22;;;12.00;100.00
11314;BME280;5712;48.858;9.206;2023-05-11T05:17:37;97928.66;;;12.03;100.00
11314;BME280;5712;48.858;9.206;2023-05-11T05:20:05;97932.03;;;12.05;100.00
11314;BME280;5712;48.858;9.206;2023-05-11T05:22:32;97933.72;;;12.06;100.00
11314;BME280;5712;48.858;9.206;2023-05-11T05:24:58;97938.28;;;12.15;100.00
11314;BME280;5712;48.858;9.206;2023-05-11T05:27:27;97938.53;;;12.12;100.00
11314;BME280;5712;48.858;9.206;2023-05-11T05:29:53;97941.44;;;12.20;100.00
11314;BME280;5712;48.858;9.206;2023-05-11T05:32:19;97941.19;;;12.23;100.00
11314;BME280;5712;48.858;9.206;2023-05-11T05:34:46;97942.28;;;12.20;100.00
11314;BME280;5712;48.858;9.206;2023-05-11T05:37:12;97934.94;;;12.24;100.00
11314;BME280;5712;48.858;9.206;2023-05-11T05:39:39;97930.34;;;12.26;100.00
11314;BME280;5712;48.858;9.206;2023-05-11T05:42:05;97939.88;;;12.28;100.00
11314;BME280;5712;48.858;9.206;2023-05-11T05:44:33;97945.75;;;12.32;100.00
11314;BME280;5712;48.858;9.206;2023-05-11T05:47:00;97943.22;;;12.30;100.00
11314;BME280;5712;48.858;9.206;2023-05-11T05:49:26;97949.16;;;12.34;100.00
11314;BME280;5712;48.858;9.206;2023-05-11T05:51:53;97948.91;;;12.37;100.00
11314;BME280;5712;48.858;9.206;2023-05-11T05:54:20;97955.66;;;12.41;100.00
11314;BME280;5712;48.858;9.206;2023-05-11T05:56:46;97953.72;;;12.43;100.00
11314;BME280;5712;48.858;9.206;2023-05-11T05:59:14;97942.88;;;12.46;100.00
11314;BME280;5712;48.858;9.206;2023-05-11T06:01:42;97955.88;;;12.49;100.00
11314;BME280;5712;48.858;9.206;2023-05-11T06:04:10;97943.81;;;12.56;100.00
11314;BME280;5712;48.858;9.206;2023-05-11T06:06:37;97944.41;;;12.59;100.00
11314;BME280;5712;48.858;9.206;2023-05-11T06:09:03;97949.00;;;12.57;100.00
11314;BME280;5712;48.858;9.206;2023-05-11T06:11:30;97946.94;;;12.61;100.00
11314;BME280;5712;48.858;9.206;2023-05-11T06:13:59;97945.50;;;12.57;100.00
11314;BME280;5712;48.858;9.206;2023-05-11T06:16:26;97947.44;;;12.55;100.00
11314;BME280;5712;48.858;9.206;2023-05-11T06:18:54;97956.34;;;12.65;100.00
11314;BME280;5712;48.858;9.206;2023-05-11T06:21:20;97950.78;;;12.57;100.00
11314;BME280;5712;48.858;9.206;2023-05-11T06:23:47;97953.34;;;12.58;100.00
11314;BME280;5712;48.858;9.206;2023-05-11T06:26:13;97960.22;;;12.50;100.00
11314;BME280;5712;48.858;9.206;2023-05-11T06:28:40;97962.84;;;12.50;100.00
11314;BME280;5712;48.858;9.206;2023-05-11T06:31:06;97954.19;;;12.48;100.00
11314;BME280;5712;48.858;9.206;2023-05-11T06:33:34;97949.59;;;12.61;100.00
11314;BME280;5712;48.858;9.206;2023-05-11T06:36:04;97950.56;;;12.60;100.00
11314;BME280;5712;48.858;9.206;2023-05-11T06:38:31;97952.13;;;12.51;100.00
11314;BME280;5712;48.858;9.206;2023-05-11T06:40:57;97952.97;;;12.52;100.00
11314;BME280;5712;48.858;9.206;2023-05-11T06:43:24;97947.66;;;12.52;100.00
11314;BME280;5712;48.858;9.206;2023-05-11T06:45:50;97962.03;;;12.49;100.00
11314;BME280;5712;48.858;9.206;2023-05-11T06:48:17;97963.59;;;12.41;100.00
11314;BME280;5712;48.858;9.206;2023-05-11T06:50:44;97948.41;;;12.43;100.00
11314;BME280;5712;48.858;9.206;2023-05-11T06:53:12;97960.56;;;12.34;100.00
11314;BME280;5712;48.858;9.206;2023-05-11T06:55:38;97964.78;;;12.26;100.00
11314;BME280;5712;48.858;9.206;2023-05-11T06:58:05;97960.25;;;12.28;100.00
11314;BME280;5712;48.858;9.206;2023-05-11T07:00:32;97963.13;;;12.25;100.00
11314;BME280;5712;48.858;9.206;2023-05-11T07:02:58;97966.13;;;12.31;100.00
11314;BME280;5712;48.858;9.206;2023-05-11T07:05:25;97963.81;;;12.27;100.00
11314;BME280;5712;48.858;9.206;2023-05-11T07:07:52;97971.53;;;12.19;100.00
11314;BME280;5712;48.858;9.206;2023-05-11T07:10:20;97973.22;;;12.20;100.00
11314;BME280;5712;48.858;9.206;2023-05-11T07:12:46;97969.59;;;12.21;100.00
11314;BME280;5712;48.858;9.206;2023-05-11T07:15:12;97976.34;;;12.25;100.00
11314;BME280;5712;48.858;9.206;2023-05-11T07:17:39;97983.72;;;12.21;100.00
11314;BME280;5712;48.858;9.206;2023-05-11T07:20:07;97979.25;;;12.22;100.00
11314;BME280;5712;48.858;9.206;2023-05-11T07:22:33;97981.91;;;12.22;100.00
11314;BME280;5712;48.858;9.206;2023-05-11T07:25:00;97981.06;;;12.21;100.00
11314;BME280;5712;48.858;9.206;2023-05-11T07:27:27;97980.69;;;12.15;100.00
11314;BME280;5712;48.858;9.206;2023-05-11T07:29:55;97980.47;;;12.18;100.00
11314;BME280;5712;48.858;9.206;2023-05-11T07:32:21;97984.06;;;12.17;100.00
11314;BME280;5712;48.858;9.206;2023-05-11T07:34:48;97983.59;;;12.23;100.00
11314;BME280;5712;48.858;9.206;2023-05-11T07:37:14;97986.72;;;12.28;100.00
11314;BME280;5712;48.858;9.206;2023-05-11T07:39:41;97981.91;;;12.22;100.00
11314;BME280;5712;48.858;9.206;2023-05-11T07:42:07;97984.81;;;12.30;100.00
11314;BME280;5712;48.858;9.206;2023-05-11T07:44:35;97989.84;;;12.33;100.00
11314;BME280;5712;48.858;9.206;2023-05-11T07:47:02;97990.44;;;12.36;100.00
11314;BME280;5712;48.858;9.206;2023-05-11T07:49:28;97981.06;;;12.32;100.00
11314;BME280;5712;48.858;9.206;2023-05-11T07:51:55;97991.56;;;12.34;100.00
11314;BME280;5712;48.858;9.206;2023-05-11T07:54:21;97985.88;;;12.27;100.00
11314;BME280;5712;48.858;9.206;2023-05-11T07:56:49;97990.56;;;12.24;100.00
11314;BME280;5712;48.858;9.206;2023-05-11T07:59:15;97990.56;;;12.24;100.00
11314;BME280;5712;48.858;9.206;2023-05-11T08:01:43;97986.72;;;12.28;100.00
11314;BME280;5712;48.858;9.206;2023-05-11T08:04:10;97984.09;;;12.28;100.00
11314;BME280;5712;48.858;9.206;2023-05-11T08:06:36;97980.31;;;12.30;100.00
11314;BME280;5712;48.858;9.206;2023-05-11T08:09:02;97982.25;;;12.28;100.00
11314;BME280;5712;48.858;9.206;2023-05-11T08:11:30;97984.53;;;12.33;100.00
11314;BME280;5712;48.858;9.206;2023-05-11T08:13:56;97986.84;;;12.26;100.00
11314;BME280;5712;48.858;9.206;2023-05-11T08:16:23;97977.56;;;12.32;100.00
11314;BME280;5712;48.858;9.206;2023-05-11T08:18:50;97983.59;;;12.34;100.00
11314;BME280;5712;48.858;9.206;2023-05-11T08:21:17;97992.16;;;12.37;100.00
11314;BME280;5712;48.858;9.206;2023-05-11T08:23:43;97983.47;;;12.35;100.00
11314;BME280;5712;48.858;9.206;2023-05-11T08:26:10;97990.81;;;12.43;100.00
11314;BME280;5712;48.858;9.206;2023-05-11T08:28:36;97976.00;;;12.40;100.00
11314;BME280;5712;48.858;9.206;2023-05-11T08:31:03;97988.66;;;12.37;100.00
11314;BME280;5712;48.858;9.206;2023-05-11T08:33:30;97989.13;;;12.42;100.00
11314;BME280;5712;48.858;9.206;2023-05-11T08:35:58;97993.47;;;12.54;100.00
11314;BME280;5712;48.858;9.206;2023-05-11T08:38:25;97974.91;;;12.54;100.00
11314;BME280;5712;48.858;9.206;2023-05-11T08:40:51;97979.00;;;12.58;100.00
11314;BME280;5712;48.858;9.206;2023-05-11T08:43:18;97980.59;;;12.49;100.00
11314;BME280;5712;48.858;9.206;2023-05-11T08:45:45;97981.91;;;12.44;100.00
11314;BME280;5712;48.858;9.206;2023-05-11T08:48:13;97990.44;;;12.47;100.00
11314;BME280;5712;48.858;9.206;2023-05-11T08:50:42;97981.28;;;12.40;100.00
11314;BME280;5712;48.858;9.206;2023-05-11T08:53:10;97983.13;;;12.40;100.00
11314;BME280;5712;48.858;9.206;2023-05-11T08:55:37;97986.72;;;12.50;100.00
11314;BME280;5712;48.858;9.206;2023-05-11T08:58:05;97983.84;;;12.42;100.00
11314;BME280;5712;48.858;9.206;2023-05-11T09:00:32;97993.59;;;12.41;100.00
11314;BME280;5712;48.858;9.206;2023-05-11T09:02:59;97989.97;;;12.42;100.00
11314;BME280;5712;48.858;9.206;2023-05-11T09:05:26;97990.59;;;12.46;100.00
11314;BME280;5712;48.858;9.206;2023-05-11T09:07:56;97988.66;;;12.48;100.00
11314;BME280;5712;48.858;9.206;2023-05-11T09:10:26;97989.47;;;12.48;100.00
11314;BME280;5712;48.858;9.206;2023-05-11T09:12:52;97983.94;;;12.51;100.00
11314;BME280;5712;48.858;9.206;2023-05-11T09:15:19;97984.19;;;12.48;100.00
11314;BME280;5712;48.858;9.206;2023-05-11T09:17:46;97988.06;;;12.44;100.00
11314;BME280;5712;48.858;9.206;2023-05-11T09:20:12;97987.56;;;12.50;100.00
11314;BME280;5712;48.858;9.206;2023-05-11T09:22:43;97983.47;;;12.57;100.00
11314;BME280;5712;48.858;9.206;2023-05-11T09:25:10;97987.19;;;12.55;100.00
11314;BME280;5712;48.858;9.206;2023-05-11T09:27:41;97985.88;;;12.49;100.00
11314;BME280;5712;48.858;9.206;2023-05-11T09:30:12;97982.50;;;12.47;100.00
11314;BME280;5712;48.858;9.206;2023-05-11T09:32:47;97987.31;;;12.42;100.00
11314;BME280;5712;48.858;9.206;2023-05-11T09:35:24;97988.44;;;12.40;100.00
11314;BME280;5712;48.858;9.206;2023-05-11T09:38:03;97988.66;;;12.48;100.00
11314;BME280;5712;48.858;9.206;2023-05-11T09:40:32;97990.59;;;12.46;100.00
11314;BME280;5712;48.858;9.206;2023-05-11T09:43:01;97993.69;;;12.51;100.00
11314;BME280;5712;48.858;9.206;2023-05-11T09:45:35;97986.50;;;12.53;100.00
11314;BME280;5712;48.858;9.206;2023-05-11T09:48:02;97983.69;;;12.54;100.00
11314;BME280;5712;48.858;9.206;2023-05-11T09:50:31;97980.94;;;12.56;100.00
11314;BME280;5712;48.858;9.206;2023-05-11T09:52:58;97979.97;;;12.57;100.00
11314;BME280;5712;48.858;9.206;2023-05-11T09:55:25;97985.63;;;12.52;100.00
11314;BME280;5712;48.858;9.206;2023-05-11T09:57:52;97983.09;;;12.62;100.00
11314;BME280;5712;48.858;9.206;2023-05-11T10:00:21;97981.03;;;12.65;100.00
11314;BME280;5712;48.858;9.206;2023-05-11T10:02:58;97978.97;;;12.69;100.00
11314;BME280;5712;48.858;9.206;2023-05-11T10:05:25;97985.25;;;12.68;100.00
11314;BME280;5712;48.858;9.206;2023-05-11T10:07:55;97987.56;;;12.61;100.00
11314;BME280;5712;48.858;9.206;2023-05-11T10:10:23;97976.34;;;12.69;100.00
11314;BME280;5712;48.858;9.206;2023-05-11T10:12:52;97983.81;;;12.64;100.00
11314;BME280;5712;48.858;9.206;2023-05-11T10:15:22;97980.81;;;12.57;100.00
11314;BME280;5712;48.858;9.206;2023-05-11T10:17:51;97982.59;;;12.57;100.00
11314;BME280;5712;48.858;9.206;2023-05-11T10:20:19;97988.88;;;12.56;100.00
11314;BME280;5712;48.858;9.206;2023-05-11T10:22:46;97982.50;;;12.58;100.00
11314;BME280;5712;48.858;9.206;2023-05-11T10:25:13;97974.41;;;12.71;100.00
11314;BME280;5712;48.858;9.206;2023-05-11T10:27:40;97981.91;;;12.66;100.00
11314;BME280;5712;48.858;9.206;2023-05-11T10:30:09;97977.09;;;12.60;100.00
11314;BME280;5712;48.858;9.206;2023-05-11T10:32:37;97986.22;;;12.56;100.00
11314;BME280;5712;48.858;9.206;2023-05-11T10:35:05;97984.56;;;12.55;100.00
11314;BME280;5712;48.858;9.206;2023-05-11T10:37:32;97975.28;;;12.49;100.00
11314;BME280;5712;48.858;9.206;2023-05-11T10:39:59;97975.28;;;12.49;100.00
11314;BME280;5712;48.858;9.206;2023-05-11T10:42:52;97974.81;;;12.55;100.00
11314;BME280;5712;48.858;9.206;2023-05-11T10:45:27;97986.34;;;12.54;100.00
11314;BME280;5712;48.858;9.206;2023-05-11T10:51:08;97970.59;;;12.53;100.00
11314;BME280;5712;48.858;9.206;2023-05-11T10:53:49;97972.25;;;12.65;100.00
11314;BME280;5712;48.858;9.206;2023-05-11T10:56:29;97972.00;;;12.68;100.00
11314;BME280;5712;48.858;9.206;2023-05-11T10:59:24;97972.72;;;12.70;100.00
11314;BME280;5712;48.858;9.206;2023-05-11T11:01:57;97965.97;;;12.66;100.00
11314;BME280;5712;48.858;9.206;2023-05-11T11:04:40;97967.56;;;12.57;100.00
11314;BME280;5712;48.858;9.206;2023-05-11T11:07:08;97962.97;;;12.48;100.00
11314;BME280;5712;48.858;9.206;2023-05-11T11:09:57;97966.00;;;12.44;100.00
11314;BME280;5712;48.858;9.206;2023-05-11T11:12:25;97958.53;;;12.49;100.00
11314;BME280;5712;48.858;9.206;2023-05-11T11:14:53;97960.22;;;12.50;100.00
11314;BME280;5712;48.858;9.206;2023-05-11T11:17:21;97957.44;;;12.51;100.00
11314;BME280;5712;48.858;9.206;2023-05-11T11:19:50;97960.81;;;12.53;100.00
11314;BME280;5712;48.858;9.206;2023-05-11T11:22:42;97963.06;;;12.69;100.00
11314;BME280;5712;48.858;9.206;2023-05-11T11:25:12;97958.94;;;12.76;100.00
11314;BME280;5712;48.858;9.206;2023-05-11T11:27:56;97955.91;;;12.91;100.00
11314;BME280;5712;48.858;9.206;2023-05-11T11:30:24;97962.81;;;12.83;100.00
11314;BME280;5712;48.858;9.206;2023-05-11T11:32:54;97965.59;;;12.81;100.00
11314;BME280;5712;48.858;9.206;2023-05-11T11:35:46;97949.41;;;12.84;100.00
11314;BME280;5712;48.858;9.206;2023-05-11T11:38:15;97954.22;;;12.90;100.00
11314;BME280;5712;48.858;9.206;2023-05-11T11:40:43;97952.16;;;12.94;100.00
11314;BME280;5712;48.858;9.206;2023-05-11T11:43:11;97947.38;;;12.99;100.00
11314;BME280;5712;48.858;9.206;2023-05-11T11:45:38;97946.16;;;13.03;100.00
11314;BME280;5712;48.858;9.206;2023-05-11T11:48:06;97945.56;;;12.88;100.00
11314;BME280;5712;48.858;9.206;2023-05-11T11:50:33;97955.31;;;12.88;100.00
11314;BME280;5712;48.858;9.206;2023-05-11T11:53:01;97956.75;;;12.92;100.00
11314;BME280;5712;48.858;9.206;2023-05-11T11:55:44;97949.63;;;13.03;100.00
11314;BME280;5712;48.858;9.206;2023-05-11T11:58:11;97943.63;;;13.01;100.00
11314;BME280;5712;48.858;9.206;2023-05-11T12:00:38;97943.38;;;12.93;100.00
11314;BME280;5712;48.858;9.206;2023-05-11T12:03:05;97947.00;;;12.92;100.00
11314;BME280;5712;48.858;9.206;2023-05-11T12:05:36;97942.06;;;12.99;100.00
11314;BME280;5712;48.858;9.206;2023-05-11T12:08:09;97945.28;;;13.13;100.00
11314;BME280;5712;48.858;9.206;2023-05-11T12:10:38;97943.09;;;13.18;100.00
11314;BME280;5712;48.858;9.206;2023-05-11T12:13:05;97939.28;;;13.32;100.00
11314;BME280;5712;48.858;9.206;2023-05-11T12:15:31;97932.22;;;13.42;100.00
11314;BME280;5712;48.858;9.206;2023-05-11T12:17:58;97920.06;;;13.39;94.62
11314;BME280;5712;48.858;9.206;2023-05-11T12:20:27;97919.75;;;13.33;96.51
11314;BME280;5712;48.858;9.206;2023-05-11T12:22:54;97927.44;;;13.36;97.01
11314;BME280;5712;48.858;9.206;2023-05-11T12:25:22;97925.72;;;13.46;96.45
11314;BME280;5712;48.858;9.206;2023-05-11T12:27:49;97927.06;;;13.61;97.23
11314;BME280;5712;48.858;9.206;2023-05-11T12:30:20;97928.16;;;13.79;98.97
11314;BME280;5712;48.858;9.206;2023-05-11T12:32:47;97930.50;;;13.93;99.10
11314;BME280;5712;48.858;9.206;2023-05-11T12:35:13;97892.84;;;13.88;85.66
11314;BME280;5712;48.858;9.206;2023-05-11T12:37:41;97898.34;;;13.96;86.46
11314;BME280;5712;48.858;9.206;2023-05-11T12:40:10;97914.31;;;14.05;89.12
11314;BME280;5712;48.858;9.206;2023-05-11T12:42:38;97898.41;;;14.15;86.73
11314;BME280;5712;48.858;9.206;2023-05-11T12:45:05;97888.34;;;14.18;84.18
11314;BME280;5712;48.858;9.206;2023-05-11T12:47:34;97873.88;;;14.22;81.03
11314;BME280;5712;48.858;9.206;2023-05-11T12:50:01;97884.81;;;14.29;83.50
11314;BME280;5712;48.858;9.206;2023-05-11T12:52:28;97890.03;;;14.49;84.04
11314;BME280;5712;48.858;9.206;2023-05-11T12:54:54;97893.56;;;14.59;84.16
11314;BME280;5712;48.858;9.206;2023-05-11T12:57:24;97879.41;;;14.59;82.97
11314;BME280;5712;48.858;9.206;2023-05-11T13:00:07;97883.22;;;14.66;83.14
11314;BME280;5712;48.858;9.206;2023-05-11T13:02:34;97873.97;;;14.70;84.43
11314;BME280;5712;48.858;9.206;2023-05-11T13:05:09;97882.16;;;14.87;84.64
11314;BME280;5712;48.858;9.206;2023-05-11T13:07:37;97869.53;;;14.99;82.38
11314;BME280;5712;48.858;9.206;2023-05-11T13:10:04;97851.91;;;15.07;78.96
11314;BME280;5712;48.858;9.206;2023-05-11T13:12:31;97855.66;;;15.05;79.74